sensor_id;sensor_type;location;lat;lon;timestamp;P1;durP1;ratioP1;P2;durP2;ratioP2
53801;SDS011;39709;53.334;6.534;2023-03-12T00:01:22;9.33;;;3.00;;
53801;SDS011;39709;53.334;6.534;2023-03-12T00:03:51;9.75;;;3.20;;
53801;SDS011;39709;53.334;6.534;2023-03-12T00:06:18;10.48;;;3.40;;
53801;SDS011;39709;53.334;6.534;2023-03-12T00:08:44;11.38;;;3.83;;
53801;SDS011;39709;53.334;6.534;2023-03-12T00:11:15;9.87;;;3.60;;
53801;SDS011;39709;53.334;6.534;2023-03-12T00:13:42;11.27;;;3.15;;
53801;SDS011;39709;53.334;6.534;2023-03-12T00:16:09;9.48;;;2.75;;
53801;SDS011;39709;53.334;6.534;2023-03-12T00:18:37;9.98;;;3.17;;
53801;SDS011;39709;53.334;6.534;2023-03-12T00:21:02;10.07;;;2.67;;
53801;SDS011;39709;53.334;6.534;2023-03-12T00:23:29;8.63;;;3.17;;
53801;SDS011;39709;53.334;6.534;2023-03-12T00:25:59;9.48;;;2.92;;
53801;SDS011;39709;53.334;6.534;2023-03-12T00:28:26;7.13;;;2.22;;
53801;SDS011;39709;53.334;6.534;2023-03-12T00:30:51;10.07;;;3.07;;
53801;SDS011;39709;53.334;6.534;2023-03-12T00:33:17;9.88;;;1.80;;
53801;SDS011;39709;53.334;6.534;2023-03-12T00:35:43;10.20;;;3.03;;
53801;SDS011;39709;53.334;6.534;2023-03-12T00:38:09;12.48;;;2.78;;
53801;SDS011;39709;53.334;6.534;2023-03-12T00:40:34;11.10;;;3.20;;
53801;SDS011;39709;53.334;6.534;2023-03-12T00:43:00;12.00;;;3.55;;
53801;SDS011;39709;53.334;6.534;2023-03-12T00:45:26;11.40;;;3.30;;
53801;SDS011;39709;53.334;6.534;2023-03-12T00:47:51;9.07;;;3.10;;
53801;SDS011;39709;53.334;6.534;2023-03-12T00:50:17;9.50;;;3.20;;
53801;SDS011;39709;53.334;6.534;2023-03-12T00:52:43;10.48;;;3.08;;
53801;SDS011;39709;53.334;6.534;2023-03-12T00:55:09;11.17;;;3.43;;
53801;SDS011;39709;53.334;6.534;2023-03-12T00:57:34;9.35;;;2.95;;
53801;SDS011;39709;53.334;6.534;2023-03-12T01:00:00;10.60;;;3.27;;
53801;SDS011;39709;53.334;6.534;2023-03-12T01:02:26;8.85;;;3.38;;
53801;SDS011;39709;53.334;6.534;2023-03-12T01:04:51;9.90;;;3.30;;
53801;SDS011;39709;53.334;6.534;2023-03-12T01:07:17;9.95;;;3.10;;
53801;SDS011;39709;53.334;6.534;2023-03-12T01:09:43;9.93;;;3.47;;
53801;SDS011;39709;53.334;6.534;2023-03-12T01:12:08;10.82;;;2.90;;
53801;SDS011;39709;53.334;6.534;2023-03-12T01:14:34;9.80;;;2.70;;
53801;SDS011;39709;53.334;6.534;2023-03-12T01:17:00;10.25;;;3.20;;
53801;SDS011;39709;53.334;6.534;2023-03-12T01:19:25;8.30;;;3.00;;
53801;SDS011;39709;53.334;6.534;2023-03-12T01:21:51;8.02;;;3.17;;
53801;SDS011;39709;53.334;6.534;2023-03-12T01:24:17;9.97;;;3.20;;
53801;SDS011;39709;53.334;6.534;2023-03-12T01:26:42;8.05;;;3.10;;
53801;SDS011;39709;53.334;6.534;2023-03-12T01:29:08;11.73;;;3.70;;
53801;SDS011;39709;53.334;6.534;2023-03-12T01:31:34;7.30;;;2.83;;
53801;SDS011;39709;53.334;6.534;2023-03-12T01:33:59;8.32;;;2.90;;
53801;SDS011;39709;53.334;6.534;2023-03-12T01:36:26;8.80;;;2.03;;
53801;SDS011;39709;53.334;6.534;2023-03-12T01:38:54;9.05;;;2.58;;
53801;SDS011;39709;53.334;6.534;2023-03-12T01:41:22;8.68;;;2.90;;
53801;SDS011;39709;53.334;6.534;2023-03-12T01:43:50;8.60;;;2.92;;
53801;SDS011;39709;53.334;6.534;2023-03-12T01:49:06;11.23;;;2.63;;
53801;SDS011;39709;53.334;6.534;2023-03-12T01:52:18;8.75;;;2.90;;
53801;SDS011;39709;53.334;6.534;2023-03-12T01:54:34;9.25;;;3.17;;
53801;SDS011;39709;53.334;6.534;2023-03-12T01:57:04;10.07;;;2.88;;
53801;SDS011;39709;53.334;6.534;2023-03-12T01:59:44;13.15;;;4.00;;
53801;SDS011;39709;53.334;6.534;2023-03-12T02:02:14;7.87;;;2.60;;
53801;SDS011;39709;53.334;6.534;2023-03-12T02:04:41;7.60;;;2.85;;
53801;SDS011;39709;53.334;6.534;2023-03-12T02:07:11;8.95;;;3.00;;
53801;SDS011;39709;53.334;6.534;2023-03-12T02:09:40;11.27;;;3.35;;
53801;SDS011;39709;53.334;6.534;2023-03-12T02:12:09;9.70;;;2.90;;
53801;SDS011;39709;53.334;6.534;2023-03-12T02:14:35;7.67;;;2.10;;
53801;SDS011;39709;53.334;6.534;2023-03-12T02:17:01;9.05;;;2.67;;
53801;SDS011;39709;53.334;6.534;2023-03-12T02:22:19;11.80;;;2.80;;
53801;SDS011;39709;53.334;6.534;2023-03-12T02:27:50;7.93;;;2.00;;
53801;SDS011;39709;53.334;6.534;2023-03-12T02:30:17;9.15;;;2.70;;
53801;SDS011;39709;53.334;6.534;2023-03-12T02:32:44;7.95;;;2.20;;
53801;SDS011;39709;53.334;6.534;2023-03-12T02:35:10;8.18;;;2.67;;
53801;SDS011;39709;53.334;6.534;2023-03-12T02:37:51;7.97;;;2.57;;
53801;SDS011;39709;53.334;6.534;2023-03-12T02:40:28;7.20;;;2.10;;
53801;SDS011;39709;53.334;6.534;2023-03-12T02:42:58;10.93;;;2.90;;
53801;SDS011;39709;53.334;6.534;2023-03-12T02:45:25;11.25;;;3.47;;
53801;SDS011;39709;53.334;6.534;2023-03-12T02:47:51;12.05;;;2.95;;
53801;SDS011;39709;53.334;6.534;2023-03-12T02:50:17;7.70;;;2.97;;
53801;SDS011;39709;53.334;6.534;2023-03-12T02:52:43;10.07;;;3.03;;
53801;SDS011;39709;53.334;6.534;2023-03-12T02:55:08;9.77;;;2.90;;
53801;SDS011;39709;53.334;6.534;2023-03-12T02:57:34;11.80;;;3.05;;
53801;SDS011;39709;53.334;6.534;2023-03-12T03:00:03;8.90;;;2.88;;
53801;SDS011;39709;53.334;6.534;2023-03-12T03:02:31;9.80;;;3.10;;
53801;SDS011;39709;53.334;6.534;2023-03-12T03:04:56;9.57;;;3.53;;
53801;SDS011;39709;53.334;6.534;2023-03-12T03:07:22;8.05;;;2.88;;
53801;SDS011;39709;53.334;6.534;2023-03-12T03:09:48;13.00;;;3.13;;
53801;SDS011;39709;53.334;6.534;2023-03-12T03:12:13;9.40;;;3.35;;
53801;SDS011;39709;53.334;6.534;2023-03-12T03:14:39;7.77;;;2.83;;
53801;SDS011;39709;53.334;6.534;2023-03-12T03:17:05;9.70;;;3.13;;
53801;SDS011;39709;53.334;6.534;2023-03-12T03:19:31;8.17;;;3.00;;
53801;SDS011;39709;53.334;6.534;2023-03-12T03:21:56;10.05;;;2.72;;
53801;SDS011;39709;53.334;6.534;2023-03-12T03:24:22;10.40;;;3.20;;
53801;SDS011;39709;53.334;6.534;2023-03-12T03:26:48;10.60;;;3.22;;
53801;SDS011;39709;53.334;6.534;2023-03-12T03:29:13;10.63;;;3.30;;
53801;SDS011;39709;53.334;6.534;2023-03-12T03:31:40;10.85;;;3.22;;
53801;SDS011;39709;53.334;6.534;2023-03-12T03:34:06;9.18;;;2.30;;
53801;SDS011;39709;53.334;6.534;2023-03-12T03:36:32;10.00;;;2.80;;
53801;SDS011;39709;53.334;6.534;2023-03-12T03:38:58;7.85;;;2.38;;
53801;SDS011;39709;53.334;6.534;2023-03-12T03:41:24;10.23;;;2.40;;
53801;SDS011;39709;53.334;6.534;2023-03-12T03:43:50;10.65;;;2.72;;
53801;SDS011;39709;53.334;6.534;2023-03-12T03:46:15;8.27;;;2.45;;
53801;SDS011;39709;53.334;6.534;2023-03-12T03:48:41;9.17;;;2.37;;
53801;SDS011;39709;53.334;6.534;2023-03-12T03:51:08;9.40;;;2.25;;
53801;SDS011;39709;53.334;6.534;2023-03-12T03:53:34;6.70;;;1.98;;
53801;SDS011;39709;53.334;6.534;2023-03-12T03:56:10;8.57;;;2.00;;
53801;SDS011;39709;53.334;6.534;2023-03-12T03:58:38;6.55;;;2.08;;
53801;SDS011;39709;53.334;6.534;2023-03-12T04:01:04;5.83;;;1.93;;
53801;SDS011;39709;53.334;6.534;2023-03-12T04:03:30;9.80;;;2.10;;
53801;SDS011;39709;53.334;6.534;2023-03-12T04:05:58;11.02;;;2.25;;
53801;SDS011;39709;53.334;6.534;2023-03-12T04:08:25;10.98;;;2.58;;
53801;SDS011;39709;53.334;6.534;2023-03-12T04:10:51;7.68;;;2.40;;
53801;SDS011;39709;53.334;6.534;2023-03-12T04:13:17;8.77;;;2.90;;
53801;SDS011;39709;53.334;6.534;2023-03-12T04:15:47;8.70;;;2.30;;
53801;SDS011;39709;53.334;6.534;2023-03-12T04:18:15;12.20;;;2.70;;
53801;SDS011;39709;53.334;6.534;2023-03-12T04:20:41;8.35;;;2.58;;
53801;SDS011;39709;53.334;6.534;2023-03-12T04:23:06;7.53;;;2.43;;
53801;SDS011;39709;53.334;6.534;2023-03-12T04:25:32;11.63;;;2.55;;
53801;SDS011;39709;53.334;6.534;2023-03-12T04:27:58;8.37;;;2.90;;
53801;SDS011;39709;53.334;6.534;2023-03-12T04:30:25;9.02;;;2.60;;
53801;SDS011;39709;53.334;6.534;2023-03-12T04:32:51;9.23;;;2.50;;
53801;SDS011;39709;53.334;6.534;2023-03-12T04:35:17;8.82;;;2.88;;
53801;SDS011;39709;53.334;6.534;2023-03-12T04:37:43;8.00;;;2.50;;
53801;SDS011;39709;53.334;6.534;2023-03-12T04:40:09;7.25;;;2.60;;
53801;SDS011;39709;53.334;6.534;2023-03-12T04:42:36;9.50;;;2.78;;
53801;SDS011;39709;53.334;6.534;2023-03-12T04:45:03;10.80;;;3.10;;
53801;SDS011;39709;53.334;6.534;2023-03-12T04:47:30;10.88;;;2.67;;
53801;SDS011;39709;53.334;6.534;2023-03-12T04:49:57;9.65;;;2.70;;
53801;SDS011;39709;53.334;6.534;2023-03-12T04:52:23;10.23;;;2.35;;
53801;SDS011;39709;53.334;6.534;2023-03-12T04:54:49;9.57;;;2.67;;
53801;SDS011;39709;53.334;6.534;2023-03-12T04:57:15;9.70;;;2.70;;
53801;SDS011;39709;53.334;6.534;2023-03-12T04:59:41;8.50;;;2.60;;
53801;SDS011;39709;53.334;6.534;2023-03-12T05:02:06;12.17;;;2.87;;
53801;SDS011;39709;53.334;6.534;2023-03-12T05:04:32;8.07;;;2.40;;
53801;SDS011;39709;53.334;6.534;2023-03-12T05:06:58;9.63;;;3.10;;
53801;SDS011;39709;53.334;6.534;2023-03-12T05:09:23;8.63;;;2.88;;
53801;SDS011;39709;53.334;6.534;2023-03-12T05:11:49;7.30;;;2.73;;
53801;SDS011;39709;53.334;6.534;2023-03-12T05:14:15;10.05;;;3.15;;
53801;SDS011;39709;53.334;6.534;2023-03-12T05:16:41;7.37;;;2.60;;
53801;SDS011;39709;53.334;6.534;2023-03-12T05:19:06;7.10;;;2.50;;
53801;SDS011;39709;53.334;6.534;2023-03-12T05:21:32;10.23;;;3.37;;
53801;SDS011;39709;53.334;6.534;2023-03-12T05:23:58;9.15;;;2.92;;
53801;SDS011;39709;53.334;6.534;2023-03-12T05:26:25;9.13;;;3.03;;
53801;SDS011;39709;53.334;6.534;2023-03-12T05:28:52;9.48;;;3.00;;
53801;SDS011;39709;53.334;6.534;2023-03-12T05:31:19;9.48;;;3.17;;
53801;SDS011;39709;53.334;6.534;2023-03-12T05:33:45;10.32;;;3.17;;
53801;SDS011;39709;53.334;6.534;2023-03-12T05:36:11;7.05;;;2.90;;
53801;SDS011;39709;53.334;6.534;2023-03-12T05:38:38;8.57;;;3.22;;
53801;SDS011;39709;53.334;6.534;2023-03-12T05:41:04;8.63;;;3.08;;
53801;SDS011;39709;53.334;6.534;2023-03-12T05:43:30;9.20;;;2.85;;
53801;SDS011;39709;53.334;6.534;2023-03-12T05:45:57;10.00;;;3.13;;
53801;SDS011;39709;53.334;6.534;2023-03-12T05:48:24;8.98;;;2.90;;
53801;SDS011;39709;53.334;6.534;2023-03-12T05:50:50;8.27;;;3.10;;
53801;SDS011;39709;53.334;6.534;2023-03-12T05:53:16;11.67;;;3.67;;
53801;SDS011;39709;53.334;6.534;2023-03-12T05:55:42;10.27;;;3.47;;
53801;SDS011;39709;53.334;6.534;2023-03-12T05:58:08;15.10;;;3.10;;
53801;SDS011;39709;53.334;6.534;2023-03-12T06:00:34;8.15;;;3.20;;
53801;SDS011;39709;53.334;6.534;2023-03-12T06:03:03;10.48;;;3.75;;
53801;SDS011;39709;53.334;6.534;2023-03-12T06:05:29;11.05;;;2.90;;
53801;SDS011;39709;53.334;6.534;2023-03-12T06:07:56;12.32;;;3.05;;
53801;SDS011;39709;53.334;6.534;2023-03-12T06:10:22;7.57;;;3.33;;
53801;SDS011;39709;53.334;6.534;2023-03-12T06:12:48;7.97;;;3.30;;
53801;SDS011;39709;53.334;6.534;2023-03-12T06:15:13;8.70;;;3.20;;
53801;SDS011;39709;53.334;6.534;2023-03-12T06:17:39;8.35;;;3.08;;
53801;SDS011;39709;53.334;6.534;2023-03-12T06:20:05;7.40;;;3.00;;
53801;SDS011;39709;53.334;6.534;2023-03-12T06:22:31;7.72;;;3.20;;
53801;SDS011;39709;53.334;6.534;2023-03-12T06:24:57;11.45;;;3.60;;
53801;SDS011;39709;53.334;6.534;2023-03-12T06:27:23;11.40;;;4.00;;
53801;SDS011;39709;53.334;6.534;2023-03-12T06:29:48;8.93;;;3.30;;
53801;SDS011;39709;53.334;6.534;2023-03-12T06:32:15;10.00;;;3.60;;
53801;SDS011;39709;53.334;6.534;2023-03-12T06:34:42;9.67;;;3.70;;
53801;SDS011;39709;53.334;6.534;2023-03-12T06:37:08;12.00;;;3.53;;
53801;SDS011;39709;53.334;6.534;2023-03-12T06:39:34;10.55;;;3.42;;
53801;SDS011;39709;53.334;6.534;2023-03-12T06:42:00;8.87;;;3.20;;
53801;SDS011;39709;53.334;6.534;2023-03-12T06:44:26;11.38;;;3.45;;
53801;SDS011;39709;53.334;6.534;2023-03-12T06:46:51;10.37;;;3.70;;
53801;SDS011;39709;53.334;6.534;2023-03-12T06:49:17;11.60;;;3.55;;
53801;SDS011;39709;53.334;6.534;2023-03-12T06:51:43;10.40;;;3.95;;
53801;SDS011;39709;53.334;6.534;2023-03-12T06:54:09;11.20;;;3.80;;
53801;SDS011;39709;53.334;6.534;2023-03-12T06:56:34;8.40;;;3.50;;
53801;SDS011;39709;53.334;6.534;2023-03-12T06:59:00;9.48;;;4.00;;
53801;SDS011;39709;53.334;6.534;2023-03-12T07:01:26;12.60;;;4.27;;
53801;SDS011;39709;53.334;6.534;2023-03-12T07:03:51;11.93;;;3.65;;
53801;SDS011;39709;53.334;6.534;2023-03-12T07:06:19;9.83;;;4.03;;
53801;SDS011;39709;53.334;6.534;2023-03-12T07:08:46;12.13;;;3.97;;
53801;SDS011;39709;53.334;6.534;2023-03-12T07:11:12;13.32;;;3.90;;
53801;SDS011;39709;53.334;6.534;2023-03-12T07:13:38;8.73;;;3.70;;
53801;SDS011;39709;53.334;6.534;2023-03-12T07:16:05;9.80;;;4.10;;
53801;SDS011;39709;53.334;6.534;2023-03-12T07:18:31;9.95;;;4.00;;
53801;SDS011;39709;53.334;6.534;2023-03-12T07:20:57;8.95;;;4.10;;
53801;SDS011;39709;53.334;6.534;2023-03-12T07:23:22;13.60;;;3.73;;
53801;SDS011;39709;53.334;6.534;2023-03-12T07:25:48;2.45;;;0.55;;
53801;SDS011;39709;53.334;6.534;2023-03-12T07:28:15;8.20;;;2.85;;
53801;SDS011;39709;53.334;6.534;2023-03-12T07:30:41;3.83;;;1.40;;
53801;SDS011;39709;53.334;6.534;2023-03-12T07:33:07;11.25;;;5.10;;
53801;SDS011;39709;53.334;6.534;2023-03-12T07:35:35;2.25;;;0.55;;
53801;SDS011;39709;53.334;6.534;2023-03-12T07:38:02;84.85;;;29.48;;
53801;SDS011;39709;53.334;6.534;2023-03-12T07:40:29;4.97;;;1.87;;
53801;SDS011;39709;53.334;6.534;2023-03-12T07:42:55;17.50;;;9.40;;
53801;SDS011;39709;53.334;6.534;2023-03-12T07:45:22;8.40;;;3.63;;
53801;SDS011;39709;53.334;6.534;2023-03-12T07:47:48;3.00;;;0.77;;
53801;SDS011;39709;53.334;6.534;2023-03-12T07:50:14;17.60;;;10.57;;
53801;SDS011;39709;53.334;6.534;2023-03-12T07:52:40;4.38;;;0.73;;
53801;SDS011;39709;53.334;6.534;2023-03-12T07:55:06;10.55;;;4.93;;
53801;SDS011;39709;53.334;6.534;2023-03-12T07:57:33;12.65;;;4.82;;
53801;SDS011;39709;53.334;6.534;2023-03-12T07:59:59;10.13;;;4.53;;
53801;SDS011;39709;53.334;6.534;2023-03-12T08:02:25;16.45;;;6.18;;
53801;SDS011;39709;53.334;6.534;2023-03-12T08:04:50;10.73;;;5.20;;
53801;SDS011;39709;53.334;6.534;2023-03-12T08:07:16;14.93;;;7.30;;
53801;SDS011;39709;53.334;6.534;2023-03-12T08:09:42;15.77;;;8.07;;
53801;SDS011;39709;53.334;6.534;2023-03-12T08:12:08;17.38;;;8.10;;
53801;SDS011;39709;53.334;6.534;2023-03-12T08:14:34;14.93;;;6.80;;
53801;SDS011;39709;53.334;6.534;2023-03-12T08:17:00;15.60;;;7.07;;
53801;SDS011;39709;53.334;6.534;2023-03-12T08:19:26;18.48;;;8.77;;
53801;SDS011;39709;53.334;6.534;2023-03-12T08:21:52;17.23;;;8.48;;
53801;SDS011;39709;53.334;6.534;2023-03-12T08:24:19;19.52;;;10.10;;
53801;SDS011;39709;53.334;6.534;2023-03-12T08:26:46;16.05;;;9.10;;
53801;SDS011;39709;53.334;6.534;2023-03-12T08:29:11;13.17;;;6.93;;
53801;SDS011;39709;53.334;6.534;2023-03-12T08:31:37;21.73;;;10.68;;
53801;SDS011;39709;53.334;6.534;2023-03-12T08:34:03;20.13;;;10.70;;
53801;SDS011;39709;53.334;6.534;2023-03-12T08:36:29;20.27;;;11.13;;
53801;SDS011;39709;53.334;6.534;2023-03-12T08:38:55;15.27;;;8.48;;
53801;SDS011;39709;53.334;6.534;2023-03-12T08:41:20;26.40;;;11.63;;
53801;SDS011;39709;53.334;6.534;2023-03-12T08:43:46;17.95;;;10.85;;
53801;SDS011;39709;53.334;6.534;2023-03-12T08:46:12;19.73;;;11.53;;
53801;SDS011;39709;53.334;6.534;2023-03-12T08:48:38;19.90;;;11.50;;
53801;SDS011;39709;53.334;6.534;2023-03-12T08:51:04;20.10;;;10.52;;
53801;SDS011;39709;53.334;6.534;2023-03-12T08:53:32;15.90;;;8.13;;
53801;SDS011;39709;53.334;6.534;2023-03-12T08:55:59;21.42;;;12.25;;
53801;SDS011;39709;53.334;6.534;2023-03-12T08:58:25;22.15;;;12.25;;
53801;SDS011;39709;53.334;6.534;2023-03-12T09:00:52;21.30;;;11.85;;
53801;SDS011;39709;53.334;6.534;2023-03-12T09:03:19;20.48;;;11.10;;
53801;SDS011;39709;53.334;6.534;2023-03-12T09:05:45;22.83;;;11.70;;
53801;SDS011;39709;53.334;6.534;2023-03-12T09:08:11;17.52;;;10.35;;
53801;SDS011;39709;53.334;6.534;2023-03-12T09:10:38;20.23;;;10.38;;
53801;SDS011;39709;53.334;6.534;2023-03-12T09:13:04;19.20;;;10.48;;
53801;SDS011;39709;53.334;6.534;2023-03-12T09:15:31;14.98;;;8.10;;
53801;SDS011;39709;53.334;6.534;2023-03-12T09:17:57;16.90;;;8.30;;
53801;SDS011;39709;53.334;6.534;2023-03-12T09:20:23;20.90;;;11.73;;
53801;SDS011;39709;53.334;6.534;2023-03-12T09:22:49;13.27;;;6.13;;
53801;SDS011;39709;53.334;6.534;2023-03-12T09:25:15;20.50;;;9.70;;
53801;SDS011;39709;53.334;6.534;2023-03-12T09:27:42;18.13;;;10.18;;
53801;SDS011;39709;53.334;6.534;2023-03-12T09:30:11;20.67;;;10.15;;
53801;SDS011;39709;53.334;6.534;2023-03-12T09:32:42;18.67;;;9.80;;
53801;SDS011;39709;53.334;6.534;2023-03-12T09:35:11;19.73;;;10.23;;
53801;SDS011;39709;53.334;6.534;2023-03-12T09:37:38;17.20;;;9.70;;
53801;SDS011;39709;53.334;6.534;2023-03-12T09:40:04;20.38;;;12.18;;
53801;SDS011;39709;53.334;6.534;2023-03-12T09:43:09;16.77;;;9.75;;
53801;SDS011;39709;53.334;6.534;2023-03-12T09:45:47;14.57;;;6.50;;
53801;SDS011;39709;53.334;6.534;2023-03-12T09:48:18;19.90;;;10.48;;
53801;SDS011;39709;53.334;6.534;2023-03-12T09:50:51;18.88;;;10.57;;
53801;SDS011;39709;53.334;6.534;2023-03-12T09:55:50;25.60;;;10.85;;
53801;SDS011;39709;53.334;6.534;2023-03-12T10:00:57;17.80;;;9.77;;
53801;SDS011;39709;53.334;6.534;2023-03-12T10:06:28;12.15;;;4.65;;
53801;SDS011;39709;53.334;6.534;2023-03-12T10:09:19;12.18;;;7.65;;
53801;SDS011;39709;53.334;6.534;2023-03-12T10:19:42;21.60;;;11.67;;
53801;SDS011;39709;53.334;6.534;2023-03-12T10:27:46;15.43;;;9.63;;
53801;SDS011;39709;53.334;6.534;2023-03-12T10:30:15;14.85;;;7.72;;
53801;SDS011;39709;53.334;6.534;2023-03-12T10:32:48;18.00;;;10.80;;
53801;SDS011;39709;53.334;6.534;2023-03-12T10:35:19;19.23;;;10.88;;
53801;SDS011;39709;53.334;6.534;2023-03-12T10:37:47;15.07;;;8.60;;
53801;SDS011;39709;53.334;6.534;2023-03-12T10:40:19;5.30;;;2.22;;
53801;SDS011;39709;53.334;6.534;2023-03-12T10:42:46;3.47;;;1.15;;
53801;SDS011;39709;53.334;6.534;2023-03-12T10:48:21;6.55;;;3.33;;
53801;SDS011;39709;53.334;6.534;2023-03-12T10:51:02;7.47;;;2.20;;
53801;SDS011;39709;53.334;6.534;2023-03-12T10:53:31;7.38;;;3.75;;
53801;SDS011;39709;53.334;6.534;2023-03-12T10:56:06;4.13;;;2.00;;
53801;SDS011;39709;53.334;6.534;2023-03-12T11:01:26;3.25;;;0.70;;
53801;SDS011;39709;53.334;6.534;2023-03-12T11:07:05;3.75;;;1.13;;
53801;SDS011;39709;53.334;6.534;2023-03-12T11:09:39;2.90;;;0.57;;
53801;SDS011;39709;53.334;6.534;2023-03-12T11:12:25;4.87;;;1.87;;
53801;SDS011;39709;53.334;6.534;2023-03-12T11:14:52;7.80;;;3.88;;
53801;SDS011;39709;53.334;6.534;2023-03-12T11:17:19;9.60;;;5.27;;
53801;SDS011;39709;53.334;6.534;2023-03-12T11:19:49;5.75;;;2.03;;
53801;SDS011;39709;53.334;6.534;2023-03-12T11:22:25;3.67;;;0.65;;
53801;SDS011;39709;53.334;6.534;2023-03-12T11:24:54;5.88;;;2.28;;
53801;SDS011;39709;53.334;6.534;2023-03-12T11:27:34;4.47;;;1.20;;
53801;SDS011;39709;53.334;6.534;2023-03-12T11:30:11;5.90;;;2.42;;
53801;SDS011;39709;53.334;6.534;2023-03-12T11:32:42;4.25;;;1.25;;
53801;SDS011;39709;53.334;6.534;2023-03-12T11:35:14;2.53;;;0.68;;
53801;SDS011;39709;53.334;6.534;2023-03-12T11:37:51;4.05;;;1.17;;
53801;SDS011;39709;53.334;6.534;2023-03-12T11:57:02;5.22;;;1.77;;
53801;SDS011;39709;53.334;6.534;2023-03-12T12:16:18;8.60;;;3.95;;
53801;SDS011;39709;53.334;6.534;2023-03-12T12:22:02;4.03;;;1.53;;
53801;SDS011;39709;53.334;6.534;2023-03-12T12:27:24;12.38;;;5.95;;
53801;SDS011;39709;53.334;6.534;2023-03-12T12:30:08;12.18;;;7.60;;
53801;SDS011;39709;53.334;6.534;2023-03-12T12:35:24;15.37;;;6.07;;
53801;SDS011;39709;53.334;6.534;2023-03-12T12:38:09;12.82;;;7.07;;
53801;SDS011;39709;53.334;6.534;2023-03-12T12:40:55;13.00;;;7.00;;
53801;SDS011;39709;53.334;6.534;2023-03-12T12:43:39;12.27;;;6.55;;
53801;SDS011;39709;53.334;6.534;2023-03-12T12:48:50;13.23;;;6.77;;
53801;SDS011;39709;53.334;6.534;2023-03-12T12:51:43;16.42;;;7.90;;
53801;SDS011;39709;53.334;6.534;2023-03-12T12:57:27;16.90;;;8.75;;
53801;SDS011;39709;53.334;6.534;2023-03-12T13:00:13;14.38;;;7.28;;
53801;SDS011;39709;53.334;6.534;2023-03-12T13:02:43;9.47;;;4.40;;
53801;SDS011;39709;53.334;6.534;2023-03-12T13:05:29;15.18;;;6.63;;
53801;SDS011;39709;53.334;6.534;2023-03-12T13:08:08;16.70;;;7.53;;
53801;SDS011;39709;53.334;6.534;2023-03-12T13:11:24;20.23;;;7.05;;
53801;SDS011;39709;53.334;6.534;2023-03-12T13:16:35;18.00;;;5.90;;
53801;SDS011;39709;53.334;6.534;2023-03-12T13:19:17;15.18;;;6.78;;
53801;SDS011;39709;53.334;6.534;2023-03-12T13:24:32;17.75;;;7.78;;
53801;SDS011;39709;53.334;6.534;2023-03-12T13:32:00;25.52;;;7.68;;
53801;SDS011;39709;53.334;6.534;2023-03-12T13:36:58;31.70;;;8.02;;
53801;SDS011;39709;53.334;6.534;2023-03-12T13:39:32;30.90;;;8.85;;
53801;SDS011;39709;53.334;6.534;2023-03-12T13:42:00;25.57;;;7.77;;
53801;SDS011;39709;53.334;6.534;2023-03-12T13:44:46;28.73;;;7.82;;
53801;SDS011;39709;53.334;6.534;2023-03-12T13:47:30;31.77;;;8.85;;
53801;SDS011;39709;53.334;6.534;2023-03-12T13:50:07;34.30;;;8.70;;
53801;SDS011;39709;53.334;6.534;2023-03-12T13:52:39;25.17;;;7.50;;
53801;SDS011;39709;53.334;6.534;2023-03-12T13:55:19;24.02;;;5.95;;
53801;SDS011;39709;53.334;6.534;2023-03-12T13:57:50;18.83;;;5.55;;
53801;SDS011;39709;53.334;6.534;2023-03-12T14:00:22;24.70;;;6.93;;
53801;SDS011;39709;53.334;6.534;2023-03-12T14:06:22;21.23;;;4.88;;
53801;SDS011;39709;53.334;6.534;2023-03-12T14:16:45;14.03;;;2.10;;
53801;SDS011;39709;53.334;6.534;2023-03-12T14:19:17;8.57;;;1.27;;
53801;SDS011;39709;53.334;6.534;2023-03-12T14:21:48;31.05;;;4.22;;
53801;SDS011;39709;53.334;6.534;2023-03-12T14:24:22;6.40;;;1.15;;
53801;SDS011;39709;53.334;6.534;2023-03-12T14:26:59;14.60;;;2.25;;
53801;SDS011;39709;53.334;6.534;2023-03-12T14:29:28;21.07;;;3.40;;
53801;SDS011;39709;53.334;6.534;2023-03-12T14:32:01;14.43;;;2.95;;
53801;SDS011;39709;53.334;6.534;2023-03-12T14:34:30;10.02;;;1.58;;
53801;SDS011;39709;53.334;6.534;2023-03-12T14:37:15;6.55;;;1.15;;
53801;SDS011;39709;53.334;6.534;2023-03-12T14:39:53;8.13;;;1.30;;
53801;SDS011;39709;53.334;6.534;2023-03-12T14:42:28;16.47;;;2.40;;
53801;SDS011;39709;53.334;6.534;2023-03-12T14:45:08;11.60;;;1.83;;
53801;SDS011;39709;53.334;6.534;2023-03-12T14:47:40;14.65;;;2.25;;
53801;SDS011;39709;53.334;6.534;2023-03-12T14:50:37;15.93;;;3.00;;
53801;SDS011;39709;53.334;6.534;2023-03-12T14:55:58;7.50;;;1.17;;
53801;SDS011;39709;53.334;6.534;2023-03-12T14:58:25;13.85;;;2.17;;
53801;SDS011;39709;53.334;6.534;2023-03-12T15:00:55;8.98;;;2.13;;
53801;SDS011;39709;53.334;6.534;2023-03-12T15:03:26;9.45;;;1.15;;
53801;SDS011;39709;53.334;6.534;2023-03-12T15:05:53;8.90;;;1.37;;
53801;SDS011;39709;53.334;6.534;2023-03-12T15:08:19;6.78;;;1.63;;
53801;SDS011;39709;53.334;6.534;2023-03-12T15:10:46;16.15;;;2.30;;
53801;SDS011;39709;53.334;6.534;2023-03-12T15:13:14;5.63;;;1.27;;
53801;SDS011;39709;53.334;6.534;2023-03-12T15:15:41;6.77;;;1.07;;
53801;SDS011;39709;53.334;6.534;2023-03-12T15:18:12;13.60;;;1.88;;
53801;SDS011;39709;53.334;6.534;2023-03-12T15:20:48;12.70;;;2.05;;
53801;SDS011;39709;53.334;6.534;2023-03-12T15:23:16;16.33;;;2.00;;
53801;SDS011;39709;53.334;6.534;2023-03-12T15:25:43;5.57;;;0.85;;
53801;SDS011;39709;53.334;6.534;2023-03-12T15:30:35;13.48;;;1.52;;
53801;SDS011;39709;53.334;6.534;2023-03-12T15:33:20;18.23;;;2.15;;
53801;SDS011;39709;53.334;6.534;2023-03-12T15:36:02;18.30;;;2.43;;
53801;SDS011;39709;53.334;6.534;2023-03-12T15:38:44;11.50;;;1.88;;
53801;SDS011;39709;53.334;6.534;2023-03-12T15:41:17;15.18;;;1.67;;
53801;SDS011;39709;53.334;6.534;2023-03-12T15:43:58;17.40;;;2.33;;
53801;SDS011;39709;53.334;6.534;2023-03-12T15:46:24;9.68;;;1.50;;
53801;SDS011;39709;53.334;6.534;2023-03-12T15:48:52;16.10;;;2.43;;
53801;SDS011;39709;53.334;6.534;2023-03-12T15:51:26;22.38;;;3.20;;
53801;SDS011;39709;53.334;6.534;2023-03-12T15:56:45;11.55;;;1.50;;
53801;SDS011;39709;53.334;6.534;2023-03-12T16:01:44;17.75;;;2.35;;
53801;SDS011;39709;53.334;6.534;2023-03-12T16:04:14;19.65;;;2.97;;
53801;SDS011;39709;53.334;6.534;2023-03-12T16:06:39;12.05;;;1.65;;
53801;SDS011;39709;53.334;6.534;2023-03-12T16:09:09;10.80;;;2.30;;
53801;SDS011;39709;53.334;6.534;2023-03-12T16:11:40;18.45;;;2.65;;
53801;SDS011;39709;53.334;6.534;2023-03-12T16:14:09;16.67;;;1.67;;
53801;SDS011;39709;53.334;6.534;2023-03-12T16:16:40;10.32;;;1.30;;
53801;SDS011;39709;53.334;6.534;2023-03-12T16:19:13;21.83;;;2.77;;
53801;SDS011;39709;53.334;6.534;2023-03-12T16:21:43;10.82;;;1.73;;
53801;SDS011;39709;53.334;6.534;2023-03-12T16:24:09;17.85;;;2.30;;
53801;SDS011;39709;53.334;6.534;2023-03-12T16:26:36;13.40;;;1.73;;
53801;SDS011;39709;53.334;6.534;2023-03-12T16:29:09;20.73;;;2.43;;
53801;SDS011;39709;53.334;6.534;2023-03-12T16:31:39;23.45;;;2.92;;
53801;SDS011;39709;53.334;6.534;2023-03-12T16:34:07;15.05;;;1.60;;
53801;SDS011;39709;53.334;6.534;2023-03-12T16:36:35;23.42;;;3.22;;
53801;SDS011;39709;53.334;6.534;2023-03-12T16:39:00;20.13;;;2.23;;
53801;SDS011;39709;53.334;6.534;2023-03-12T16:41:26;13.40;;;2.10;;
53801;SDS011;39709;53.334;6.534;2023-03-12T16:43:52;23.27;;;3.58;;
53801;SDS011;39709;53.334;6.534;2023-03-12T16:46:20;21.95;;;2.17;;
53801;SDS011;39709;53.334;6.534;2023-03-12T16:48:50;15.75;;;1.67;;
53801;SDS011;39709;53.334;6.534;2023-03-12T16:51:17;13.00;;;1.95;;